createdAt,value
2023-05-20T00:00:24.009Z,17.38
2023-05-20T00:01:24.109Z,17.44
2023-05-20T00:02:24.246Z,17.51
2023-05-20T00:03:24.090Z,17.55
2023-05-20T00:04:24.319Z,17.57
2023-05-20T00:05:24.166Z,17.57
2023-05-20T00:06:24.087Z,17.64
2023-05-20T00:07:25.301Z,17.62
2023-05-20T00:08:24.425Z,17.65
2023-05-20T00:09:24.474Z,17.65
2023-05-20T00:10:25.276Z,17.55
2023-05-20T00:11:25.478Z,17.48
2023-05-20T00:12:25.496Z,17.03
2023-05-20T00:13:25.420Z,16.71
2023-05-20T00:14:24.414Z,16.37
2023-05-20T00:15:25.480Z,15.95
2023-05-20T00:16:25.575Z,15.74
2023-05-20T00:17:24.659Z,15.58
2023-05-20T00:18:25.642Z,15.34
2023-05-20T00:19:24.755Z,15.23
2023-05-20T00:20:24.718Z,15.23
2023-05-20T00:21:24.716Z,15.33
2023-05-20T00:22:24.815Z,15.47
2023-05-20T00:23:25.858Z,15.47
2023-05-20T00:24:25.894Z,15.77
2023-05-20T00:25:25.983Z,15.98
2023-05-20T00:26:25.152Z,16.19
2023-05-20T00:27:25.134Z,16.33
2023-05-20T00:28:26.173Z,16.48
2023-05-20T00:29:25.986Z,16.61
2023-05-20T00:30:26.177Z,16.71
2023-05-20T00:31:26.313Z,16.85
2023-05-20T00:32:25.473Z,16.92
2023-05-20T00:33:26.201Z,17.02
2023-05-20T00:34:26.196Z,17.07
2023-05-20T00:35:25.347Z,17.13
2023-05-20T00:36:26.383Z,17.17
2023-05-20T00:37:25.332Z,17.19
2023-05-20T00:38:26.375Z,17.22
2023-05-20T00:39:26.697Z,17.24
2023-05-20T00:40:26.490Z,17.26
2023-05-20T00:41:26.668Z,17.06
2023-05-20T00:42:26.562Z,16.71
2023-05-20T00:43:25.594Z,16.30
2023-05-20T00:44:25.592Z,16.24
2023-05-20T00:45:25.619Z,16.23
2023-05-20T00:46:26.765Z,16.31
2023-05-20T00:47:26.749Z,16.30
2023-05-20T00:48:26.777Z,16.45
2023-05-20T00:49:26.810Z,16.58
2023-05-20T00:50:26.831Z,16.67
2023-05-20T00:51:25.843Z,16.76
2023-05-20T00:52:26.871Z,16.86
2023-05-20T00:53:26.903Z,16.85
2023-05-20T00:54:25.970Z,16.93
2023-05-20T00:55:26.933Z,16.95
2023-05-20T00:56:25.935Z,16.97
2023-05-20T00:57:25.995Z,16.97
2023-05-20T00:58:26.020Z,16.99
2023-05-20T00:59:26.001Z,17.01
2023-05-20T01:00:26.347Z,16.92
2023-05-20T01:01:26.230Z,16.69
2023-05-20T01:02:27.560Z,16.35
2023-05-20T01:03:27.624Z,15.93
2023-05-20T01:04:26.494Z,15.47
2023-05-20T01:05:27.327Z,15.51
2023-05-20T01:06:27.293Z,15.64
2023-05-20T01:07:26.270Z,15.82
2023-05-20T01:08:26.474Z,15.98
2023-05-20T01:09:27.448Z,16.12
2023-05-20T01:10:27.321Z,16.21
2023-05-20T01:11:26.438Z,16.21
2023-05-20T01:12:26.474Z,16.09
2023-05-20T01:13:26.440Z,15.91
2023-05-20T01:14:27.675Z,15.82
2023-05-20T01:15:27.498Z,15.89
2023-05-20T01:16:26.729Z,15.95
2023-05-20T01:17:27.667Z,16.02
2023-05-20T01:18:26.617Z,16.12
2023-05-20T01:19:26.705Z,16.24
2023-05-20T01:20:27.800Z,16.34
2023-05-20T01:21:26.729Z,16.40
2023-05-20T01:22:26.707Z,16.48
2023-05-20T01:23:26.825Z,16.48
2023-05-20T01:24:27.840Z,16.26
2023-05-20T01:25:27.918Z,16.19
2023-05-20T01:26:26.873Z,16.24
2023-05-20T01:27:28.003Z,16.39
2023-05-20T01:28:27.114Z,16.43
2023-05-20T01:29:27.243Z,16.51
2023-05-20T01:30:28.049Z,16.58
2023-05-20T01:31:27.179Z,16.64
2023-05-20T01:32:27.008Z,16.64
2023-05-20T01:33:27.066Z,16.69
2023-05-20T01:34:27.078Z,16.69
2023-05-20T01:35:28.397Z,16.68
2023-05-20T01:36:28.238Z,16.43
2023-05-20T01:37:27.232Z,16.40
2023-05-20T01:38:28.265Z,16.45
2023-05-20T01:39:28.326Z,16.54
2023-05-20T01:40:28.380Z,16.43
2023-05-20T01:41:28.503Z,16.08
2023-05-20T01:42:27.558Z,15.92
2023-05-20T01:43:27.496Z,15.48
2023-05-20T01:44:27.682Z,15.41
2023-05-20T01:45:28.760Z,15.41
2023-05-20T01:46:28.701Z,15.60
2023-05-20T01:47:27.646Z,15.71
2023-05-20T01:48:28.696Z,15.84
2023-05-20T01:49:27.673Z,15.99
2023-05-20T01:50:28.710Z,16.10
2023-05-20T01:51:28.713Z,16.16
2023-05-20T01:52:27.818Z,16.27
2023-05-20T01:53:27.971Z,16.28
2023-05-20T01:54:28.783Z,16.39
2023-05-20T01:55:28.746Z,16.43
2023-05-20T01:56:27.819Z,16.44
2023-05-20T01:57:27.809Z,16.47
2023-05-20T01:58:27.849Z,16.48
2023-05-20T01:59:27.841Z,16.26
2023-05-20T02:00:27.883Z,15.80
2023-05-20T02:01:28.034Z,15.37
2023-05-20T02:02:28.187Z,15.19
2023-05-20T02:03:28.223Z,15.00
2023-05-20T02:04:29.116Z,14.91
2023-05-20T02:05:28.462Z,14.93
2023-05-20T02:06:29.159Z,15.03
2023-05-20T02:07:28.319Z,15.02
2023-05-20T02:08:29.501Z,15.07
2023-05-20T02:09:28.260Z,15.26
2023-05-20T02:10:28.309Z,15.41
2023-05-20T02:11:29.347Z,15.57
2023-05-20T02:12:28.377Z,15.69
2023-05-20T02:13:28.408Z,15.82
2023-05-20T02:14:29.462Z,15.93
2023-05-20T02:15:29.491Z,16.02
2023-05-20T02:16:28.695Z,16.09
2023-05-20T02:17:28.571Z,16.10
2023-05-20T02:18:28.551Z,16.13
2023-05-20T02:19:29.657Z,16.16
2023-05-20T02:20:29.743Z,16.10
2023-05-20T02:21:28.917Z,15.99
2023-05-20T02:22:29.926Z,15.98
2023-05-20T02:23:28.703Z,16.08
2023-05-20T02:24:29.981Z,15.93
2023-05-20T02:25:29.765Z,16.03
2023-05-20T02:26:29.818Z,15.86
2023-05-20T02:27:29.797Z,15.81
2023-05-20T02:28:29.820Z,15.81
2023-05-20T02:29:29.926Z,15.78
2023-05-20T02:30:28.940Z,15.81
2023-05-20T02:31:29.870Z,15.64
2023-05-20T02:32:29.982Z,15.60
2023-05-20T02:33:30.071Z,15.54
2023-05-20T02:34:28.978Z,15.61
2023-05-20T02:35:28.959Z,15.77
2023-05-20T02:36:28.996Z,15.84
2023-05-20T02:37:29.961Z,15.93
2023-05-20T02:38:29.987Z,15.98
2023-05-20T02:39:30.046Z,16.06
2023-05-20T02:40:29.279Z,16.09
2023-05-20T02:41:29.134Z,16.13
2023-05-20T02:42:30.222Z,16.16
2023-05-20T02:43:30.171Z,16.19
2023-05-20T02:44:30.320Z,16.20
2023-05-20T02:45:29.387Z,16.26
2023-05-20T02:46:30.406Z,16.27
2023-05-20T02:47:30.350Z,16.31
2023-05-20T02:48:30.388Z,16.34
2023-05-20T02:49:30.366Z,16.35
2023-05-20T02:50:29.417Z,16.41
2023-05-20T02:51:30.470Z,16.39
2023-05-20T02:52:30.476Z,16.37
2023-05-20T02:53:29.480Z,16.33
2023-05-20T02:54:29.613Z,16.10
2023-05-20T02:55:30.602Z,15.69
2023-05-20T02:56:30.745Z,15.65
2023-05-20T02:57:29.788Z,15.65
2023-05-20T02:58:30.939Z,15.61
2023-05-20T02:59:30.823Z,15.55
2023-05-20T03:00:30.958Z,15.46
2023-05-20T03:01:29.829Z,15.18
2023-05-20T03:02:29.960Z,15.10
2023-05-20T03:03:30.918Z,15.19
2023-05-20T03:04:31.282Z,15.31
2023-05-20T03:05:31.020Z,15.41
2023-05-20T03:06:30.242Z,15.51
2023-05-20T03:07:31.120Z,15.60
2023-05-20T03:08:30.259Z,15.62
2023-05-20T03:09:31.121Z,15.46
2023-05-20T03:10:30.176Z,15.16
2023-05-20T03:11:30.240Z,14.98
2023-05-20T03:12:30.317Z,14.99
2023-05-20T03:13:30.324Z,15.07
2023-05-20T03:14:31.470Z,15.14
2023-05-20T03:15:30.434Z,15.14
2023-05-20T03:16:30.579Z,15.06
2023-05-20T03:17:30.760Z,14.88
2023-05-20T03:18:31.630Z,14.91
2023-05-20T03:19:30.801Z,14.91
2023-05-20T03:20:31.893Z,14.99
2023-05-20T03:21:30.916Z,15.10
2023-05-20T03:22:31.843Z,15.25
2023-05-20T03:23:30.807Z,15.33
2023-05-20T03:24:31.014Z,15.44
2023-05-20T03:25:31.314Z,15.50
2023-05-20T03:26:30.961Z,15.55
2023-05-20T03:27:32.019Z,15.64
2023-05-20T03:28:31.170Z,15.68
2023-05-20T03:29:31.002Z,15.74
2023-05-20T03:30:32.070Z,15.75
2023-05-20T03:31:32.176Z,15.74
2023-05-20T03:32:32.194Z,15.75
2023-05-20T03:33:31.147Z,15.71
2023-05-20T03:34:31.318Z,15.72
2023-05-20T03:35:31.351Z,15.71
2023-05-20T03:36:31.351Z,15.74
2023-05-20T03:37:31.458Z,15.65
2023-05-20T03:38:31.460Z,15.48
2023-05-20T03:39:32.401Z,15.47
2023-05-20T03:40:32.612Z,15.54
2023-05-20T03:41:32.457Z,15.54
2023-05-20T03:42:32.508Z,15.55
2023-05-20T03:43:31.572Z,15.61
2023-05-20T03:44:31.867Z,15.64
2023-05-20T03:45:31.701Z,15.26
2023-05-20T03:46:32.854Z,14.65
2023-05-20T03:47:31.839Z,14.31
2023-05-20T03:48:31.847Z,14.22
2023-05-20T03:49:31.853Z,14.16
2023-05-20T03:50:32.795Z,14.15
2023-05-20T03:51:32.072Z,14.29
2023-05-20T03:52:32.009Z,14.36
2023-05-20T03:53:33.016Z,14.52
2023-05-20T03:54:32.980Z,14.67
2023-05-20T03:55:32.507Z,14.81
2023-05-20T03:56:32.176Z,14.91
2023-05-20T03:57:32.077Z,15.02
2023-05-20T03:58:32.141Z,15.13
2023-05-20T03:59:33.180Z,15.20
2023-05-20T04:00:33.238Z,15.19
2023-05-20T04:01:32.351Z,15.16
2023-05-20T04:02:32.343Z,15.16
2023-05-20T04:03:32.561Z,15.20
2023-05-20T04:04:32.273Z,15.26
2023-05-20T04:05:33.635Z,15.33
2023-05-20T04:06:33.345Z,15.40
2023-05-20T04:07:33.446Z,15.40
2023-05-20T04:08:32.431Z,15.48
2023-05-20T04:09:33.759Z,15.48
2023-05-20T04:10:33.490Z,15.51
2023-05-20T04:11:32.635Z,15.53
2023-05-20T04:12:32.596Z,15.54
2023-05-20T04:13:32.604Z,15.54
2023-05-20T04:14:33.880Z,15.58
2023-05-20T04:15:33.744Z,15.58
2023-05-20T04:16:32.715Z,15.62
2023-05-20T04:17:32.592Z,15.65
2023-05-20T04:18:33.599Z,15.69
2023-05-20T04:19:33.656Z,15.71
2023-05-20T04:20:33.663Z,15.71
2023-05-20T04:21:32.757Z,15.72
2023-05-20T04:22:32.731Z,15.69
2023-05-20T04:23:33.762Z,15.66
2023-05-20T04:24:32.844Z,15.66
2023-05-20T04:25:32.833Z,15.68
2023-05-20T04:26:33.851Z,15.66
2023-05-20T04:27:33.975Z,15.66
2023-05-20T04:28:33.964Z,15.68
2023-05-20T04:29:33.221Z,15.69
2023-05-20T04:30:33.323Z,15.72
2023-05-20T04:31:33.128Z,15.72
2023-05-20T04:32:34.205Z,15.74
2023-05-20T04:33:34.256Z,15.77
2023-05-20T04:34:33.188Z,15.71
2023-05-20T04:35:33.648Z,15.78
2023-05-20T04:36:33.289Z,15.77
2023-05-20T04:37:33.231Z,15.78
2023-05-20T04:38:33.371Z,15.74
2023-05-20T04:39:34.363Z,15.38
2023-05-20T04:40:33.313Z,15.29
2023-05-20T04:41:33.437Z,15.09
2023-05-20T04:42:34.467Z,15.22
2023-05-20T04:43:34.648Z,15.31
2023-05-20T04:44:34.453Z,14.95
2023-05-20T04:45:33.846Z,15.06
2023-05-20T04:46:34.758Z,14.88
2023-05-20T04:47:34.764Z,14.72
2023-05-20T04:48:33.741Z,14.79
2023-05-20T04:49:34.701Z,14.81
2023-05-20T04:50:33.753Z,14.79
2023-05-20T04:51:34.939Z,14.65
2023-05-20T04:52:33.821Z,14.47
2023-05-20T04:53:33.973Z,14.65
2023-05-20T04:54:34.893Z,14.43
2023-05-20T04:55:34.129Z,14.34
2023-05-20T04:56:34.987Z,14.40
2023-05-20T04:57:34.263Z,14.34
2023-05-20T04:58:34.089Z,14.39
2023-05-20T04:59:35.354Z,14.50
2023-05-20T05:00:34.250Z,14.45
2023-05-20T05:01:34.340Z,14.58
2023-05-20T05:02:35.532Z,14.79
2023-05-20T05:03:36.549Z,14.92
2023-05-20T05:04:35.603Z,15.05
2023-05-20T05:05:34.749Z,15.05
2023-05-20T05:06:34.513Z,15.13
2023-05-20T05:07:34.492Z,15.29
2023-05-20T05:08:34.580Z,15.22
2023-05-20T05:09:35.006Z,15.12
2023-05-20T05:10:34.612Z,15.27
2023-05-20T05:11:34.597Z,15.31
2023-05-20T05:12:34.557Z,15.46
2023-05-20T05:13:34.575Z,15.41
2023-05-20T05:14:34.781Z,15.53
2023-05-20T05:15:34.863Z,15.62
2023-05-20T05:16:35.672Z,15.69
2023-05-20T05:17:35.740Z,15.75
2023-05-20T05:18:34.807Z,15.60
2023-05-20T05:19:35.689Z,15.53
2023-05-20T05:20:35.732Z,15.69
2023-05-20T05:21:35.708Z,15.72
2023-05-20T05:22:35.988Z,15.71
2023-05-20T05:23:35.762Z,15.66
2023-05-20T05:24:34.957Z,15.41
2023-05-20T05:25:34.936Z,15.53
2023-05-20T05:26:35.817Z,15.61
2023-05-20T05:27:34.871Z,15.65
2023-05-20T05:28:35.065Z,15.72
2023-05-20T05:29:34.862Z,15.81
2023-05-20T05:30:35.187Z,15.86
2023-05-20T05:31:35.920Z,15.91
2023-05-20T05:32:34.985Z,16.00
2023-05-20T05:33:36.047Z,16.03
2023-05-20T05:34:35.928Z,15.58
2023-05-20T05:35:35.152Z,15.29
2023-05-20T05:36:35.019Z,15.29
2023-05-20T05:37:34.945Z,15.30
2023-05-20T05:38:35.934Z,15.16
2023-05-20T05:39:35.991Z,15.10
2023-05-20T05:40:34.963Z,15.09
2023-05-20T05:41:36.080Z,15.19
2023-05-20T05:42:35.194Z,15.13
2023-05-20T05:43:36.149Z,14.96
2023-05-20T05:44:36.066Z,15.18
2023-05-20T05:45:35.325Z,15.23
2023-05-20T05:46:35.175Z,15.41
2023-05-20T05:47:36.557Z,15.41
2023-05-20T05:48:36.233Z,15.50
2023-05-20T05:49:35.267Z,15.57
2023-05-20T05:50:35.535Z,15.47
2023-05-20T05:51:38.215Z,15.54
2023-05-20T05:52:35.410Z,15.43
2023-05-20T05:53:36.349Z,15.50
2023-05-20T05:54:35.427Z,15.25
2023-05-20T05:55:35.508Z,14.99
2023-05-20T05:56:35.285Z,14.85
2023-05-20T05:57:35.313Z,15.06
2023-05-20T05:58:35.471Z,15.05
2023-05-20T05:59:36.279Z,14.99
2023-05-20T06:00:35.399Z,15.02
2023-05-20T06:01:36.254Z,14.85
2023-05-20T06:02:36.638Z,14.84
2023-05-20T06:03:35.475Z,15.19
2023-05-20T06:04:35.219Z,15.40
2023-05-20T06:05:35.426Z,15.51
2023-05-20T06:06:36.348Z,15.58
2023-05-20T06:07:35.473Z,15.68
2023-05-20T06:08:35.241Z,15.38
2023-05-20T06:09:35.297Z,15.22
2023-05-20T06:10:35.224Z,15.05
2023-05-20T06:11:36.532Z,15.25
2023-05-20T06:12:35.189Z,14.96
2023-05-20T06:13:35.391Z,15.09
2023-05-20T06:14:36.380Z,15.05
2023-05-20T06:15:35.359Z,15.30
2023-05-20T06:16:36.191Z,15.34
2023-05-20T06:17:35.256Z,15.27
2023-05-20T06:18:35.225Z,14.95
2023-05-20T06:19:35.278Z,15.07
2023-05-20T06:20:36.123Z,15.09
2023-05-20T06:21:35.179Z,15.03
2023-05-20T06:22:35.420Z,15.10
2023-05-20T06:23:36.232Z,15.03
2023-05-20T06:24:36.300Z,15.23
2023-05-20T06:25:36.332Z,15.20
2023-05-20T06:26:35.399Z,15.38
2023-05-20T06:27:35.491Z,15.33
2023-05-20T06:28:35.468Z,15.48
2023-05-20T06:29:36.623Z,15.51
2023-05-20T06:30:35.688Z,15.37
2023-05-20T06:31:36.636Z,15.38
2023-05-20T06:32:36.904Z,15.25
2023-05-20T06:33:36.924Z,15.44
2023-05-20T06:34:36.795Z,15.47
2023-05-20T06:35:36.947Z,15.69
2023-05-20T06:36:35.917Z,15.64
2023-05-20T06:37:37.029Z,15.43
2023-05-20T06:38:37.039Z,15.23
2023-05-20T06:39:37.027Z,15.29
2023-05-20T06:40:36.235Z,15.34
2023-05-20T06:41:36.169Z,15.41
2023-05-20T06:42:37.212Z,15.68
2023-05-20T06:43:36.200Z,15.93
2023-05-20T06:44:37.422Z,15.95
2023-05-20T06:45:36.233Z,15.95
2023-05-20T06:46:36.426Z,15.81
2023-05-20T06:47:36.259Z,15.65
2023-05-20T06:48:37.289Z,15.74
2023-05-20T06:49:36.249Z,15.74
2023-05-20T06:50:36.324Z,15.77
2023-05-20T06:51:36.238Z,15.91
2023-05-20T06:52:37.604Z,16.06
2023-05-20T06:53:36.289Z,15.99
2023-05-20T06:54:36.361Z,15.99
2023-05-20T06:55:37.625Z,16.12
2023-05-20T06:56:36.469Z,16.09
2023-05-20T06:57:36.557Z,16.15
2023-05-20T06:58:36.607Z,16.20
2023-05-20T06:59:37.585Z,16.47
2023-05-20T07:00:36.614Z,16.71
2023-05-20T07:01:36.737Z,16.72
2023-05-20T07:02:37.763Z,16.78
2023-05-20T07:03:37.779Z,16.99
2023-05-20T07:04:37.899Z,16.97
2023-05-20T07:05:37.853Z,17.02
2023-05-20T07:06:37.997Z,17.23
2023-05-20T07:07:37.018Z,17.38
2023-05-20T07:08:36.994Z,17.42
2023-05-20T07:09:38.159Z,17.48
2023-05-20T07:10:38.111Z,17.23
2023-05-20T07:11:38.463Z,17.26
2023-05-20T07:12:38.165Z,16.97
2023-05-20T07:13:38.252Z,16.99
2023-05-20T07:14:38.243Z,16.80
2023-05-20T07:15:38.417Z,16.65
2023-05-20T07:16:37.465Z,16.82
2023-05-20T07:17:37.385Z,16.67
2023-05-20T07:18:37.474Z,16.80
2023-05-20T07:19:38.569Z,16.90
2023-05-20T07:20:37.775Z,16.93
2023-05-20T07:21:38.671Z,16.90
2023-05-20T07:22:37.646Z,17.07
2023-05-20T07:23:38.603Z,17.16
2023-05-20T07:24:38.769Z,16.99
2023-05-20T07:25:37.585Z,17.17
2023-05-20T07:26:37.617Z,17.02
2023-05-20T07:27:37.693Z,16.99
2023-05-20T07:28:37.756Z,16.80
2023-05-20T07:29:37.701Z,16.92
2023-05-20T07:30:38.742Z,16.79
2023-05-20T07:31:37.856Z,16.96
2023-05-20T07:32:37.932Z,17.14
2023-05-20T07:33:38.948Z,16.95
2023-05-20T07:34:38.092Z,17.12
2023-05-20T07:35:39.097Z,17.24
2023-05-20T07:36:39.122Z,17.26
2023-05-20T07:37:38.006Z,17.10
2023-05-20T07:39:38.028Z,17.29
2023-05-20T07:40:38.954Z,17.29
2023-05-20T07:41:39.079Z,17.33
2023-05-20T07:42:38.063Z,17.10
2023-05-20T07:43:38.041Z,17.16
2023-05-20T07:44:39.248Z,17.24
2023-05-20T07:45:38.340Z,17.40
2023-05-20T07:46:39.457Z,17.29
2023-05-20T07:47:38.161Z,17.12
2023-05-20T07:48:39.281Z,17.51
2023-05-20T07:49:38.170Z,17.55
2023-05-20T07:50:39.194Z,17.47
2023-05-20T07:51:38.352Z,17.57
2023-05-20T07:53:38.251Z,17.88
2023-05-20T07:54:38.336Z,18.04
2023-05-20T07:55:39.145Z,17.86
2023-05-20T07:56:38.478Z,17.92
2023-05-20T07:57:38.147Z,17.88
2023-05-20T07:58:38.235Z,17.75
2023-05-20T07:59:39.176Z,17.96
2023-05-20T08:00:38.165Z,17.97
2023-05-20T08:01:39.138Z,17.81
2023-05-20T08:02:39.638Z,17.84
2023-05-20T08:03:38.359Z,17.89
2023-05-20T08:04:39.154Z,17.89
2023-05-20T08:05:38.100Z,17.89
2023-05-20T08:06:38.144Z,18.00
2023-05-20T08:07:39.287Z,17.95
2023-05-20T08:08:38.115Z,17.93
2023-05-20T08:09:39.097Z,18.09
2023-05-20T08:10:38.227Z,18.16
2023-05-20T08:11:38.109Z,18.14
2023-05-20T08:12:38.045Z,18.16
2023-05-20T08:13:39.140Z,18.23
2023-05-20T08:14:38.041Z,18.09
2023-05-20T08:15:38.155Z,18.19
2023-05-20T08:16:38.068Z,18.19
2023-05-20T08:17:39.152Z,18.27
2023-05-20T08:18:38.048Z,18.36
2023-05-20T08:19:39.091Z,18.47
2023-05-20T08:20:39.005Z,18.56
2023-05-20T08:21:38.995Z,18.56
2023-05-20T08:22:37.997Z,18.56
2023-05-20T08:23:39.674Z,18.68
2023-05-20T08:24:38.424Z,18.65
2023-05-20T08:25:38.321Z,18.52
2023-05-20T08:26:38.352Z,18.75
2023-05-20T08:27:39.243Z,18.82
2023-05-20T08:28:38.344Z,18.98
2023-05-20T08:29:38.484Z,19.02
2023-05-20T08:30:38.387Z,19.09
2023-05-20T08:31:38.619Z,19.07
2023-05-20T08:32:38.485Z,19.27
2023-05-20T08:33:38.510Z,18.92
2023-05-20T08:34:39.689Z,18.98
2023-05-20T08:35:38.594Z,19.18
2023-05-20T08:36:39.636Z,19.39
2023-05-20T08:37:39.689Z,19.05
2023-05-20T08:41:57.961Z,18.88
2023-05-20T08:44:16.947Z,19.27
2023-05-20T08:45:17.840Z,19.23
2023-05-20T08:47:36.286Z,19.23
2023-05-20T08:48:36.033Z,19.17
2023-05-20T09:01:06.341Z,19.85
2023-05-20T09:04:37.605Z,20.09
2023-05-20T09:06:56.744Z,20.31
2023-05-20T09:07:56.485Z,20.30
2023-05-20T09:08:56.538Z,20.37
2023-05-20T09:09:56.531Z,20.50
2023-05-20T09:10:56.503Z,20.52
2023-05-20T09:13:15.860Z,20.67
2023-05-20T09:14:16.754Z,20.45
2023-05-20T09:15:15.773Z,20.47
2023-05-20T09:16:15.566Z,20.59
2023-05-20T09:17:16.506Z,20.58
2023-05-20T09:18:15.591Z,20.54
2023-05-20T09:19:15.681Z,20.80
2023-05-20T09:23:07.948Z,20.68
2023-05-20T09:24:08.199Z,20.83
2023-05-20T09:26:27.295Z,20.97
2023-05-20T09:27:28.488Z,21.11
2023-05-20T09:35:50.432Z,21.23
2023-05-20T09:36:50.190Z,21.41
2023-05-20T09:37:51.477Z,21.52
2023-05-20T09:38:51.116Z,21.36
2023-05-20T09:39:50.146Z,21.48
2023-05-20T09:40:50.183Z,21.55
2023-05-20T09:45:45.243Z,21.68
2023-05-20T09:46:45.036Z,21.81
2023-05-20T09:47:45.157Z,21.92
2023-05-20T09:48:45.944Z,21.96
2023-05-20T09:49:45.893Z,22.07
2023-05-20T09:50:45.907Z,22.07
2023-05-20T09:51:44.879Z,22.06
2023-05-20T09:52:45.986Z,21.95
2023-05-20T09:53:45.979Z,22.13
2023-05-20T09:54:45.110Z,22.20
2023-05-20T09:55:44.825Z,22.33
2023-05-20T09:56:45.829Z,22.28
2023-05-20T09:57:45.836Z,22.44
2023-05-20T09:58:45.896Z,22.45
2023-05-20T09:59:44.817Z,22.38
2023-05-20T10:00:44.833Z,22.51
2023-05-20T10:01:45.980Z,22.62
2023-05-20T10:02:45.050Z,22.62
2023-05-20T10:03:46.033Z,22.44
2023-05-20T10:04:44.811Z,22.37
2023-05-20T10:05:45.041Z,22.43
2023-05-20T10:06:45.782Z,22.51
2023-05-20T10:07:45.078Z,22.69
2023-05-20T10:08:45.968Z,22.71
2023-05-20T10:09:45.995Z,22.76
2023-05-20T10:10:44.825Z,22.89
2023-05-20T10:11:44.738Z,22.93
2023-05-20T10:14:04.265Z,22.93
2023-05-20T10:15:04.340Z,22.92
2023-05-20T10:16:04.226Z,22.99
2023-05-20T10:17:03.960Z,23.10
2023-05-20T10:18:05.221Z,23.15
2023-05-20T10:19:04.999Z,22.96
2023-05-20T10:20:06.737Z,22.96
2023-05-20T10:21:04.975Z,23.14
2023-05-20T10:22:05.099Z,23.27
2023-05-20T10:24:23.325Z,23.31
2023-05-20T10:25:23.433Z,23.28
2023-05-20T10:26:24.423Z,23.14
2023-05-20T10:27:23.227Z,23.13
2023-05-20T10:28:24.237Z,22.92
2023-05-20T10:29:23.216Z,23.10
2023-05-20T10:32:19.048Z,23.20
2023-05-20T10:33:18.823Z,23.40
2023-05-20T10:34:19.017Z,23.34
2023-05-20T10:35:19.731Z,23.52
2023-05-20T10:36:18.703Z,23.61
2023-05-20T10:37:18.754Z,23.72
2023-05-20T10:38:18.692Z,23.73
2023-05-20T10:39:18.684Z,23.80
2023-05-20T10:40:18.741Z,23.80
2023-05-20T10:41:19.667Z,24.04
2023-05-20T10:42:19.866Z,24.07
2023-05-20T10:43:19.785Z,23.86
2023-05-20T10:44:19.660Z,24.10
2023-05-20T10:45:18.706Z,24.16
2023-05-20T10:46:31.243Z,24.07
2023-05-20T10:47:25.376Z,24.25
2023-05-20T10:49:50.726Z,24.41
2023-05-20T10:50:50.544Z,24.06
2023-05-20T10:51:51.713Z,24.00
2023-05-20T10:52:51.552Z,23.85
2023-05-20T10:53:51.659Z,23.82
2023-05-20T10:54:51.837Z,23.87
2023-05-20T10:55:50.450Z,24.07
2023-05-20T10:56:50.381Z,24.17
2023-05-20T11:00:04.138Z,24.24
2023-05-20T11:01:05.058Z,24.24
2023-05-20T11:02:05.175Z,24.24
2023-05-20T11:03:03.934Z,24.17
2023-05-20T11:04:03.862Z,24.20
2023-05-20T11:05:04.804Z,24.34
2023-05-20T11:06:03.735Z,24.39
2023-05-20T11:07:04.802Z,24.20
2023-05-20T11:08:08.098Z,23.96
2023-05-20T11:09:04.724Z,24.11
2023-05-20T11:10:03.896Z,24.24
2023-05-20T11:11:04.735Z,24.27
2023-05-20T11:12:04.858Z,24.41
2023-05-20T11:13:03.928Z,24.52
2023-05-20T11:14:04.808Z,24.50
2023-05-20T11:15:04.758Z,24.54
2023-05-20T11:16:03.744Z,24.44
2023-05-20T11:17:04.837Z,24.45
2023-05-20T11:19:59.658Z,24.75
2023-05-20T11:21:00.498Z,24.59
2023-05-20T11:22:06.234Z,24.59
2023-05-20T11:24:18.594Z,24.38
2023-05-20T11:25:18.542Z,24.59
2023-05-20T11:26:19.451Z,24.76
2023-05-20T11:27:19.264Z,24.90
2023-05-20T11:28:19.254Z,24.92
2023-05-20T11:29:19.248Z,24.93
2023-05-20T11:31:37.373Z,25.11
2023-05-20T11:33:56.439Z,25.38
2023-05-20T11:34:56.604Z,25.38
2023-05-20T11:35:56.332Z,25.51
2023-05-20T11:36:57.291Z,25.62
2023-05-20T11:37:57.473Z,25.75
2023-05-20T11:38:56.366Z,25.65
2023-05-20T11:39:57.273Z,25.72
2023-05-20T11:40:56.838Z,25.59
2023-05-20T11:41:56.544Z,25.82
2023-05-20T11:42:56.307Z,25.99
2023-05-20T11:43:56.388Z,26.16
2023-05-20T11:44:58.082Z,26.12
2023-05-20T11:45:56.512Z,26.24
2023-05-20T11:46:57.588Z,26.16
2023-05-20T11:50:46.891Z,26.34
2023-05-20T11:51:47.898Z,26.32
2023-05-20T11:52:46.852Z,26.32
2023-05-20T11:55:05.983Z,26.35
2023-05-20T11:56:07.043Z,26.51
2023-05-20T11:57:07.333Z,26.54
2023-05-20T11:58:06.956Z,26.54
2023-05-20T11:59:06.902Z,26.34
2023-05-20T12:00:05.882Z,26.37
2023-05-20T12:01:20.843Z,26.42
2023-05-20T12:02:06.888Z,26.60
2023-05-20T12:03:05.974Z,26.47
2023-05-20T12:04:06.949Z,26.37
2023-05-20T12:05:07.070Z,26.52
2023-05-20T12:06:05.805Z,26.76
2023-05-20T12:07:06.958Z,26.71
2023-05-20T12:08:06.976Z,26.62
2023-05-20T12:11:31.653Z,26.90
2023-05-20T12:13:50.786Z,26.94
2023-05-20T12:14:50.590Z,26.92
2023-05-20T12:15:51.765Z,27.15
2023-05-20T12:16:50.512Z,27.24
2023-05-20T12:17:51.508Z,27.45
2023-05-20T12:18:51.575Z,27.47
2023-05-20T12:19:51.709Z,27.56
2023-05-20T12:20:50.488Z,27.41
2023-05-20T12:21:50.558Z,27.55
2023-05-20T12:25:59.196Z,27.17
2023-05-20T12:26:59.138Z,27.11
2023-05-20T12:28:00.199Z,27.11
2023-05-20T12:29:00.041Z,27.28
2023-05-20T12:29:58.949Z,27.20
2023-05-20T12:30:58.981Z,27.23
2023-05-20T12:31:58.898Z,27.21
2023-05-20T12:33:00.071Z,27.38
2023-05-20T12:33:58.935Z,27.33
2023-05-20T12:34:58.848Z,27.23
2023-05-20T12:35:58.843Z,26.99
2023-05-20T12:36:59.857Z,27.00
2023-05-20T12:37:59.845Z,27.00
2023-05-20T12:38:59.869Z,27.07
2023-05-20T12:39:59.825Z,27.07
2023-05-20T12:40:59.889Z,27.11
2023-05-20T12:41:59.802Z,27.11
2023-05-20T12:42:58.793Z,27.10
2023-05-20T12:43:59.985Z,27.06
2023-05-20T12:44:58.828Z,27.15
2023-05-20T12:45:58.776Z,27.04
2023-05-20T12:46:58.827Z,26.89
2023-05-20T12:47:59.128Z,27.04
2023-05-20T12:49:00.008Z,27.15
2023-05-20T12:49:58.899Z,27.09
2023-05-20T12:52:22.434Z,26.96
2023-05-20T12:58:34.315Z,26.75
2023-05-20T12:59:35.159Z,26.78
2023-05-20T13:00:35.523Z,26.72
2023-05-20T13:01:34.253Z,26.74
2023-05-20T13:02:34.228Z,26.68
2023-05-20T13:03:34.363Z,26.69
2023-05-20T13:05:53.505Z,26.69
2023-05-20T13:06:54.670Z,26.55
2023-05-20T13:07:53.420Z,26.59
2023-05-20T13:08:54.378Z,26.71
2023-05-20T13:09:53.402Z,26.63
2023-05-20T13:10:53.446Z,26.66
2023-05-20T13:11:54.367Z,26.76
2023-05-20T13:12:53.385Z,26.96
2023-05-20T13:13:54.340Z,26.76
2023-05-20T13:14:53.459Z,26.89
2023-05-20T13:15:54.412Z,26.89
2023-05-20T13:16:53.504Z,26.78
2023-05-20T13:17:54.505Z,26.76
2023-05-20T13:18:54.458Z,26.74
2023-05-20T13:19:54.524Z,26.78
2023-05-20T13:20:53.359Z,26.82
2023-05-20T13:21:53.361Z,26.75
2023-05-20T13:22:53.444Z,26.85
2023-05-20T13:25:44.635Z,26.99
2023-05-20T13:26:44.614Z,26.78
2023-05-20T13:29:03.781Z,26.66
2023-05-20T13:30:04.501Z,26.86
2023-05-20T13:31:04.753Z,27.09
2023-05-20T13:32:04.477Z,27.06
2023-05-20T13:33:04.474Z,27.06
2023-05-20T13:34:03.450Z,26.86
2023-05-20T13:35:04.392Z,26.93
2023-05-20T13:36:04.617Z,26.90
2023-05-20T13:37:04.494Z,26.85
2023-05-20T13:38:04.382Z,26.89
2023-05-20T13:39:04.500Z,26.83
2023-05-20T13:40:03.405Z,26.89
2023-05-20T13:41:04.608Z,26.82
2023-05-20T13:42:03.421Z,26.93
2023-05-20T13:43:03.377Z,26.79
2023-05-20T13:44:04.316Z,26.97
2023-05-20T13:45:03.457Z,27.03
2023-05-20T13:46:04.354Z,26.83
2023-05-20T13:47:04.500Z,26.99
2023-05-20T13:48:04.531Z,26.89
2023-05-20T13:49:03.375Z,27.06
2023-05-20T13:51:22.223Z,26.92
2023-05-20T13:53:41.576Z,27.31
2023-05-20T13:54:42.491Z,27.21
2023-05-20T13:55:41.643Z,27.31
2023-05-20T13:56:42.333Z,27.27
2023-05-20T13:57:42.306Z,27.15
2023-05-20T13:58:41.379Z,27.00
2023-05-20T13:59:41.280Z,27.00
2023-05-20T14:00:41.291Z,26.92
2023-05-20T14:01:42.390Z,27.04
2023-05-20T14:02:42.602Z,27.15
2023-05-20T14:03:41.562Z,27.15
2023-05-20T14:04:41.461Z,27.17
2023-05-20T14:07:00.143Z,27.24
2023-05-20T14:08:01.331Z,27.24
2023-05-20T14:09:00.096Z,27.23
2023-05-20T14:10:01.069Z,27.14
2023-05-20T14:11:00.031Z,27.14
2023-05-20T14:12:01.026Z,27.13
2023-05-20T14:13:00.140Z,27.30